»·PEaware :: FFT102 KSBA-KPHX

FFT102 :: KSBA-KPHX

FLIGHT INFORMATION

Flight Status: Arrived
Operator:
Frontier Airlines
More flights by this operator :: More flights under this callsign
Pilot: Cole F. (14495)
Aircraft: AIRBUS A320
(A320)
More flights by this aircraft type
Origin: KSBA Santa Barbara Mun
United States
Destination: KPHX Phoenix Sky Harbor Intl
United States
More flights between these airports :: More routes between these airports
Route: +MISHN2 KPTIN SXC TRM J169 BLH HYDRR1
File this flight plan on PilotEdge
Remarks:
Altitude:
(Current/Filed)
35,000ft
Speed:
(Current/Filed)
433kts
Departed: 30-Apr-18 12:45 PM
Arrived: 30-Apr-18 01:55 PM
Distance/Time
Traveled:
394nm/1:10
Distance/Time
To Go:
Arrived

Flight Plot

Page will automatically refresh every two minutes.

Flight plan parsing failed; only flown route is shown


Map Options




Map Legend


Flown Route
Filed Route
Departure Airport
Arrival Airport
Navaid (VOR, NDB)
Fix

Horizontal Profiles

Position Reports

Time Latitude Longitude Heading Altitude Ground
Speed
30-Apr-18 12:27 34.424256 -119.837016 104 22ft 0kts
30-Apr-18 12:28 34.424256 -119.837016 104 22ft 0kts
30-Apr-18 12:30 34.424256 -119.837016 104 22ft 0kts
30-Apr-18 12:31 34.424256 -119.837016 104 22ft 0kts
30-Apr-18 12:32 34.424256 -119.837016 104 22ft 0kts
30-Apr-18 12:33 34.424256 -119.837016 104 22ft 0kts
30-Apr-18 12:34 34.424256 -119.837016 104 22ft 0kts
30-Apr-18 12:35 34.424256 -119.837016 104 22ft 0kts
30-Apr-18 12:36 34.424256 -119.837017 104 22ft 0kts
30-Apr-18 12:37 34.424256 -119.837017 104 22ft 0kts
30-Apr-18 12:38 34.424285 -119.837150 103 22ft 2kts
30-Apr-18 12:39 34.423955 -119.837500 339 22ft 1kts
30-Apr-18 12:40 34.423918 -119.837485 343 22ft 0kts
30-Apr-18 12:41 34.423918 -119.837485 343 22ft 0kts
30-Apr-18 12:42 34.425560 -119.837985 346 22ft 12kts
30-Apr-18 12:43 34.426736 -119.836146 88 22ft 10kts
30-Apr-18 12:44 34.427887 -119.835274 268 22ft 16kts
30-Apr-18 12:44 34.427029 -119.868467 265 882ft 167kts
30-Apr-18 12:45 34.414754 -119.925994 212 3022ft 226kts
30-Apr-18 12:47 34.336035 -119.926776 138 6198ft 270kts
30-Apr-18 12:48 34.283185 -119.861933 135 8025ft 267kts
30-Apr-18 12:49 34.229917 -119.796900 138 9630ft 285kts
30-Apr-18 12:50 34.199976 -119.700897 92 11195ft 361kts
30-Apr-18 12:50 34.195600 -119.597161 91 13137ft 380kts
30-Apr-18 12:51 34.192787 -119.467242 88 15337ft 397kts
30-Apr-18 12:52 34.172299 -119.337696 135 17267ft 413kts
30-Apr-18 12:53 34.093872 -119.246440 139 19003ft 425kts
30-Apr-18 12:54 34.007442 -119.146034 139 20692ft 438kts
30-Apr-18 12:55 33.918451 -119.042903 139 22216ft 451kts
30-Apr-18 12:56 33.827797 -118.938176 140 23599ft 463kts
30-Apr-18 12:57 33.733892 -118.830036 140 24869ft 475kts
30-Apr-18 12:58 33.637395 -118.719272 140 26044ft 486kts
30-Apr-18 12:59 33.543480 -118.611813 140 27125ft 495kts
30-Apr-18 13:00 33.442769 -118.496875 139 28168ft 506kts
30-Apr-18 13:01 33.383913 -118.346686 91 29049ft 521kts
30-Apr-18 13:02 33.399666 -118.180317 76 29872ft 522kts
30-Apr-18 13:03 33.420874 -118.007628 76 30633ft 530kts
30-Apr-18 13:04 33.440761 -117.841010 76 31499ft 532kts
30-Apr-18 13:05 33.461441 -117.665718 76 32485ft 531kts
30-Apr-18 13:06 33.481788 -117.491042 76 33412ft 531kts
30-Apr-18 13:07 33.501790 -117.317161 77 34277ft 531kts
30-Apr-18 13:08 33.521584 -117.142884 76 35056ft 529kts
30-Apr-18 13:09 33.541031 -116.969479 76 35101ft 527kts
30-Apr-18 13:10 33.560342 -116.794969 77 35102ft 529kts
30-Apr-18 13:11 33.579403 -116.620472 77 34956ft 528kts
30-Apr-18 13:12 33.598131 -116.446716 77 34959ft 529kts
30-Apr-18 13:13 33.616541 -116.273590 77 34933ft 528kts
30-Apr-18 13:14 33.627053 -116.098160 87 34925ft 534kts
30-Apr-18 13:15 33.623724 -115.919819 87 34936ft 534kts
30-Apr-18 13:16 33.620212 -115.742324 87 34944ft 534kts
30-Apr-18 13:17 33.616405 -115.564212 87 34949ft 535kts
30-Apr-18 13:18 33.612343 -115.386388 87 34697ft 528kts
30-Apr-18 13:19 33.608186 -115.214133 88 32846ft 517kts
30-Apr-18 13:20 33.603825 -115.043861 88 30886ft 507kts
30-Apr-18 13:21 33.599335 -114.877300 88 28926ft 497kts
30-Apr-18 13:22 33.586971 -114.713750 102 26828ft 492kts
30-Apr-18 13:23 33.556968 -114.559701 102 24500ft 454kts
30-Apr-18 13:24 33.529597 -114.419669 102 22934ft 412kts
30-Apr-18 13:25 33.503406 -114.286838 102 22681ft 422kts
30-Apr-18 13:26 33.476763 -114.152315 102 21912ft 415kts
30-Apr-18 13:27 33.449986 -114.018207 102 21544ft 411kts
30-Apr-18 13:28 33.423311 -113.885433 102 21257ft 410kts
30-Apr-18 13:29 33.396624 -113.752882 102 20969ft 407kts
30-Apr-18 13:30 33.370112 -113.622003 102 20673ft 405kts
30-Apr-18 13:31 33.343475 -113.491269 102 20367ft 403kts
30-Apr-18 13:32 33.320071 -113.361122 100 19944ft 399kts
30-Apr-18 13:33 33.297982 -113.233665 100 19422ft 395kts
30-Apr-18 13:34 33.279392 -113.104865 98 18933ft 391kts
30-Apr-18 13:35 33.276682 -112.977237 85 18128ft 384kts
30-Apr-18 13:36 33.279809 -112.850226 85 17085ft 381kts
30-Apr-18 13:37 33.289325 -112.728355 80 15820ft 361kts
30-Apr-18 13:38 33.300341 -112.610532 80 14479ft 351kts
30-Apr-18 13:39 33.310918 -112.496352 80 13205ft 341kts
30-Apr-18 13:40 33.321162 -112.384691 84 11947ft 337kts
30-Apr-18 13:41 33.330911 -112.277892 84 10503ft 331kts
30-Apr-18 13:42 33.340655 -112.170627 84 9355ft 312kts
30-Apr-18 13:43 33.347464 -112.071917 91 9203ft 311kts
30-Apr-18 13:44 33.346712 -111.977993 91 8652ft 260kts
30-Apr-18 13:45 33.346650 -111.891873 90 7179ft 268kts
30-Apr-18 13:46 33.346478 -111.802942 90 6014ft 258kts
30-Apr-18 13:47 33.356262 -111.722680 40 4935ft 249kts
30-Apr-18 13:48 33.409213 -111.737974 299 4120ft 218kts
30-Apr-18 13:49 33.427416 -111.796998 276 4022ft 163kts
30-Apr-18 13:50 33.428900 -111.848303 269 3658ft 141kts
30-Apr-18 13:51 33.428756 -111.895018 269 2848ft 139kts
30-Apr-18 13:52 33.428767 -111.941321 269 2189ft 137kts
30-Apr-18 13:53 33.428878 -111.986861 268 1423ft 134kts
30-Apr-18 13:54 33.428891 -112.020269 270 1143ft 36kts
30-Apr-18 13:55 33.429993 -112.025463 358 1143ft 9kts
30-Apr-18 13:56 33.432782 -112.024412 41 1143ft 6kts
30-Apr-18 13:57 33.432891 -112.020155 89 1143ft 15kts
30-Apr-18 13:58 33.433199 -112.015730 44 1143ft 11kts

Navigation Log

Ident Type
Flight plan parsing failed, navigation log unavailable